Terminal Aerodrome Forecast
Issued by NWS

Current Version | Previous Version | Text Only | Print | Product List | Glossary On
Versions: 1 2 3 4 5 6 7 8 9 10 11 12 13
000
FTUS44 KEPZ 311700
TAFTCS
TAF
KTCS 311731Z 3118/0118 VRB03KT 3SM BR BKN004 OVC012
     FM312000 16007KT 5SM BR VCSH SCT007 BKN012 OVC020
     FM312200 18006KT P6SM VCSH SCT015 BKN020
     FM010400 VRB06KT P6SM SCT020 BKN060
     FM010900 33003KT 3SM BR SCT040 BKN080
     FM011700 VRB03KT P6SM FEW020=

USA.gov is the U.S. government's official web portal to all federal, state and local government web resources and services.